Time;durP1;ratioP1;P1;durP2;ratioP2;P2;SDS_P1;SDS_P2;PMS_P1;PMS_P2;Temp;Humidity;BMP_temperature;BMP_pressure;BME280_temperature;BME280_humidity;BME280_pressure;Samples;Min_cycle;Max_cycle;Signal;HPM_P1;HPM_P2
2022/02/24 00:00:13;;;;;;;14.25;3.88;;;8.00;90.60;;;;;;5009620;28;25094;-73
2022/02/24 00:02:38;;;;;;;13.93;3.97;;;8.00;90.40;;;;;;5009889;28;25104;-74
2022/02/24 00:05:05;;;;;;;18.15;4.20;;;8.00;90.50;;;;;;5009020;28;25158;-72
2022/02/24 00:07:31;;;;;;;18.52;3.95;;;8.00;90.40;;;;;;5009281;28;25073;-73
2022/02/24 00:09:56;;;;;;;20.20;4.55;;;8.00;90.10;;;;;;4991425;28;25157;-74
2022/02/24 00:12:22;;;;;;;14.80;3.92;;;8.00;90.10;;;;;;5009997;28;25059;-75
2022/02/24 00:14:48;;;;;;;18.00;4.35;;;8.00;90.00;;;;;;4995268;28;25058;-74
2022/02/24 00:17:13;;;;;;;27.20;4.72;;;8.00;90.00;;;;;;5009803;28;25061;-74
2022/02/24 00:19:39;;;;;;;16.80;4.00;;;8.00;89.60;;;;;;4991313;28;25134;-73
2022/02/24 00:22:05;;;;;;;16.35;3.58;;;8.00;90.00;;;;;;5007514;28;25095;-74
2022/02/24 00:24:30;;;;;;;14.23;3.28;;;8.00;89.80;;;;;;5001065;28;25074;-72
2022/02/24 00:26:56;;;;;;;27.02;4.82;;;8.00;89.40;;;;;;5010194;28;25133;-71
2022/02/24 00:29:22;;;;;;;20.40;5.00;;;8.10;89.90;;;;;;5009978;28;25069;-74
2022/02/24 00:31:48;;;;;;;25.20;4.32;;;8.10;89.90;;;;;;4990701;28;25160;-74
2022/02/24 00:34:15;;;;;;;20.63;4.32;;;8.10;89.80;;;;;;5000714;28;25101;-73
2022/02/24 00:36:41;;;;;;;23.23;4.85;;;8.10;90.00;;;;;;5011165;28;25053;-74
2022/02/24 00:39:07;;;;;;;22.40;5.47;;;8.10;90.20;;;;;;5010932;28;25051;-72
2022/02/24 00:41:32;;;;;;;25.98;4.47;;;8.10;90.30;;;;;;5010393;28;25089;-75
2022/02/24 00:43:58;;;;;;;19.63;5.45;;;8.20;90.40;;;;;;5010486;28;25053;-75
2022/02/24 00:46:23;;;;;;;24.42;6.05;;;8.20;90.50;;;;;;5010989;28;25134;-75
2022/02/24 00:48:49;;;;;;;14.27;3.80;;;8.10;90.30;;;;;;5010407;28;25099;-74
2022/02/24 00:51:14;;;;;;;20.92;5.32;;;8.20;90.50;;;;;;5012403;28;25092;-74
2022/02/24 00:53:41;;;;;;;16.15;5.15;;;8.20;91.00;;;;;;5014100;28;25073;-74
2022/02/24 00:56:10;;;;;;;19.52;4.35;;;8.10;90.90;;;;;;5011941;28;25066;-73
2022/02/24 00:58:36;;;;;;;15.48;5.03;;;8.20;91.00;;;;;;4993638;28;25082;-74
2022/02/24 01:01:02;;;;;;;21.85;4.65;;;8.10;91.00;;;;;;5013841;28;25104;-73
2022/02/24 01:03:28;;;;;;;16.02;4.70;;;8.20;91.10;;;;;;5011137;28;25061;-76
2022/02/24 01:05:53;;;;;;;17.50;4.35;;;8.20;91.00;;;;;;5012238;28;25138;-73
2022/02/24 01:08:19;;;;;;;19.10;4.25;;;8.20;91.10;;;;;;5018969;28;25083;-74
2022/02/24 01:10:44;;;;;;;20.83;5.28;;;8.10;91.20;;;;;;5019455;28;25083;-73
2022/02/24 01:13:10;;;;;;;17.13;4.15;;;8.10;91.20;;;;;;5000832;28;25084;-73
2022/02/24 01:15:38;;;;;;;17.27;4.57;;;8.10;91.30;;;;;;5004622;28;25097;-73
2022/02/24 01:18:05;;;;;;;18.15;4.75;;;8.10;91.40;;;;;;5009128;28;25090;-74
2022/02/24 01:20:31;;;;;;;24.83;4.53;;;8.10;91.50;;;;;;5009048;28;25091;-73
2022/02/24 01:22:56;;;;;;;18.40;5.03;;;8.20;91.40;;;;;;5008808;28;25171;-73
2022/02/24 01:25:23;;;;;;;24.33;4.72;;;8.10;91.70;;;;;;4990685;28;25064;-73
2022/02/24 01:27:48;;;;;;;20.15;5.18;;;8.10;91.70;;;;;;4990980;28;25064;-73
2022/02/24 01:30:14;;;;;;;20.63;5.18;;;8.10;91.80;;;;;;5008144;28;25151;-74
2022/02/24 01:32:40;;;;;;;18.52;4.95;;;8.10;92.00;;;;;;5008202;28;25108;-76
2022/02/24 01:35:06;;;;;;;17.67;5.05;;;8.10;92.00;;;;;;5007978;28;25188;-75
2022/02/24 01:37:32;;;;;;;22.33;5.00;;;8.10;92.10;;;;;;5008884;28;25107;-76
2022/02/24 01:39:58;;;;;;;21.58;5.43;;;8.10;92.00;;;;;;5009262;28;25111;-73
2022/02/24 01:42:23;;;;;;;17.42;3.92;;;8.10;92.10;;;;;;5009006;28;25143;-75
2022/02/24 01:44:49;;;;;;;15.30;4.55;;;8.10;92.00;;;;;;4990547;28;25066;-72
2022/02/24 01:47:15;;;;;;;17.08;4.03;;;8.10;92.00;;;;;;5007627;28;25066;-74
2022/02/24 01:49:42;;;;;;;18.17;5.28;;;8.10;91.70;;;;;;4999086;28;25069;-74
2022/02/24 01:52:10;;;;;;;15.43;4.70;;;8.20;91.70;;;;;;5010238;28;25071;-74
2022/02/24 01:54:37;;;;;;;18.85;4.40;;;8.20;91.70;;;;;;5008279;28;25092;-74
2022/02/24 01:57:03;;;;;;;23.60;4.25;;;8.20;91.50;;;;;;5007383;28;25074;-72
2022/02/24 01:59:29;;;;;;;17.23;4.63;;;8.20;91.50;;;;;;5007138;28;25058;-74
2022/02/24 02:01:56;;;;;;;17.60;4.07;;;8.20;91.50;;;;;;5009728;28;25086;-73
2022/02/24 02:04:22;;;;;;;12.63;3.80;;;8.20;91.50;;;;;;5011265;28;25091;-73
2022/02/24 02:06:48;;;;;;;16.67;4.32;;;8.20;91.40;;;;;;5008197;28;25061;-73
2022/02/24 02:09:14;;;;;;;22.15;4.05;;;8.30;91.40;;;;;;5010790;28;25075;-73
2022/02/24 02:11:40;;;;;;;25.38;4.43;;;8.20;91.60;;;;;;5006059;28;25064;-74
2022/02/24 02:14:12;;;;;;;21.42;4.50;;;8.20;91.60;;;;;;4999040;28;25063;-73
2022/02/24 02:16:49;;;;;;;14.83;4.30;;;8.20;91.60;;;;;;4997610;28;25168;-73
2022/02/24 02:19:15;;;;;;;11.40;4.15;;;8.20;91.80;;;;;;4996343;28;25090;-75
2022/02/24 02:21:41;;;;;;;15.30;4.85;;;8.20;91.80;;;;;;4998920;28;25078;-73
2022/02/24 02:24:07;;;;;;;20.23;4.47;;;8.20;91.80;;;;;;4999731;28;25130;-72
2022/02/24 02:26:33;;;;;;;26.25;4.88;;;8.20;91.70;;;;;;5010999;28;25135;-72
2022/02/24 02:28:59;;;;;;;17.15;4.72;;;8.20;91.50;;;;;;5011707;28;25139;-74
2022/02/24 02:31:26;;;;;;;19.52;4.25;;;8.20;91.50;;;;;;5012749;28;25166;-74
2022/02/24 02:34:03;;;;;;;21.00;3.88;;;8.20;91.30;;;;;;5012658;28;25065;-76
2022/02/24 02:36:29;;;;;;;20.10;5.15;;;8.20;91.40;;;;;;5012355;28;25066;-75
2022/02/24 02:38:55;;;;;;;17.30;4.30;;;8.20;91.40;;;;;;5012130;28;25059;-74
2022/02/24 02:41:21;;;;;;;18.85;4.85;;;8.20;91.40;;;;;;5012199;28;25152;-75
2022/02/24 02:43:48;;;;;;;20.75;4.75;;;8.30;91.30;;;;;;5011868;28;25072;-75
2022/02/24 02:46:13;;;;;;;16.05;4.03;;;8.30;91.30;;;;;;5010998;28;25060;-74
2022/02/24 02:48:39;;;;;;;16.45;4.55;;;8.30;91.30;;;;;;5012017;28;25063;-74
2022/02/24 02:51:05;;;;;;;15.55;4.88;;;8.20;91.40;;;;;;5012229;28;25083;-75
2022/02/24 02:53:30;;;;;;;18.67;4.18;;;8.20;91.50;;;;;;4993168;28;25055;-77
2022/02/24 02:55:56;;;;;;;17.35;4.35;;;8.20;91.60;;;;;;5010981;28;25081;-73
2022/02/24 02:58:21;;;;;;;22.25;4.47;;;8.20;91.70;;;;;;5011375;28;25064;-74
2022/02/24 03:00:47;;;;;;;13.90;3.90;;;8.10;91.60;;;;;;5016611;28;25132;-72
2022/02/24 03:03:12;;;;;;;19.15;5.15;;;8.10;91.80;;;;;;4999771;28;25147;-73
2022/02/24 03:05:38;;;;;;;15.82;4.43;;;8.20;91.70;;;;;;4994124;28;25100;-75
2022/02/24 03:08:07;;;;;;;15.50;5.07;;;8.20;91.80;;;;;;5010637;28;25088;-73
2022/02/24 03:10:33;;;;;;;18.63;4.38;;;8.20;91.60;;;;;;5010574;28;25138;-73
2022/02/24 03:12:58;;;;;;;17.52;3.72;;;8.10;91.70;;;;;;5009896;28;25078;-74
2022/02/24 03:15:24;;;;;;;16.05;4.15;;;8.10;91.70;;;;;;5003204;28;25143;-73
2022/02/24 03:17:50;;;;;;;14.65;4.15;;;8.20;91.60;;;;;;4984960;28;25143;-75
2022/02/24 03:20:16;;;;;;;14.35;3.85;;;8.20;91.70;;;;;;5010161;28;25085;-73
2022/02/24 03:22:42;;;;;;;18.35;3.83;;;8.20;91.50;;;;;;5009859;28;25083;-73
2022/02/24 03:25:08;;;;;;;18.30;4.85;;;8.20;91.30;;;;;;5012652;28;25056;-75
2022/02/24 03:27:34;;;;;;;18.67;3.97;;;8.30;91.20;;;;;;5010663;28;25089;-76
2022/02/24 03:30:00;;;;;;;20.83;4.15;;;8.20;91.20;;;;;;5011071;28;25052;-74
2022/02/24 03:32:26;;;;;;;16.58;4.25;;;8.20;91.40;;;;;;5012002;28;25147;-73
2022/02/24 03:34:52;;;;;;;14.77;3.53;;;8.20;91.30;;;;;;5010670;28;25064;-75
2022/02/24 03:37:17;;;;;;;22.58;5.57;;;8.20;91.50;;;;;;5004046;28;25086;-75
2022/02/24 03:39:44;;;;;;;18.08;4.28;;;8.20;91.40;;;;;;5005418;28;25127;-73
2022/02/24 03:42:10;;;;;;;22.30;4.43;;;8.20;91.70;;;;;;5006413;28;25054;-73
2022/02/24 03:44:35;;;;;;;14.40;4.15;;;8.20;91.50;;;;;;5006996;28;25082;-74
2022/02/24 03:47:01;;;;;;;19.38;4.95;;;8.20;91.80;;;;;;5009183;28;25077;-75
2022/02/24 03:49:27;;;;;;;19.17;4.47;;;8.20;91.80;;;;;;4991135;28;25147;-75
2022/02/24 03:51:52;;;;;;;20.23;4.22;;;8.20;91.70;;;;;;5008986;28;25057;-74
2022/02/24 03:54:18;;;;;;;18.10;4.00;;;8.20;91.60;;;;;;5008864;28;25096;-74
2022/02/24 03:56:44;;;;;;;16.38;4.00;;;8.30;91.70;;;;;;4991896;28;25102;-73
2022/02/24 03:59:10;;;;;;;14.10;4.20;;;8.30;91.60;;;;;;5008413;28;25116;-73
2022/02/24 04:01:36;;;;;;;17.88;4.20;;;8.30;91.60;;;;;;5009463;28;25107;-75
2022/02/24 04:04:01;;;;;;;18.00;3.83;;;8.30;91.50;;;;;;5009358;28;25171;-74
2022/02/24 04:06:27;;;;;;;15.27;4.25;;;8.30;91.70;;;;;;5009237;28;25169;-73
2022/02/24 04:08:52;;;;;;;13.52;3.60;;;8.20;91.60;;;;;;5009097;28;25146;-74
2022/02/24 04:11:18;;;;;;;18.20;4.43;;;8.30;91.80;;;;;;5009142;28;25069;-75
2022/02/24 04:13:43;;;;;;;26.80;5.68;;;8.30;91.70;;;;;;5008750;28;25068;-73
2022/02/24 04:16:09;;;;;;;13.70;4.10;;;8.30;91.60;;;;;;5008953;28;25068;-74
2022/02/24 04:18:34;;;;;;;21.73;4.78;;;8.20;91.70;;;;;;5008015;28;25051;-76
2022/02/24 04:21:00;;;;;;;16.63;3.85;;;8.30;91.80;;;;;;5008668;28;25140;-75
2022/02/24 04:23:26;;;;;;;17.10;4.57;;;8.20;91.70;;;;;;5008736;28;25083;-74
2022/02/24 04:25:51;;;;;;;14.52;3.63;;;8.20;91.90;;;;;;5008649;28;25059;-74
2022/02/24 04:28:17;;;;;;;19.75;4.25;;;8.20;91.70;;;;;;5009150;28;25110;-74
2022/02/24 04:30:42;;;;;;;14.48;3.72;;;8.20;91.70;;;;;;5008147;28;25101;-74
2022/02/24 04:33:08;;;;;;;16.70;4.03;;;8.20;91.60;;;;;;5009088;28;25047;-72
2022/02/24 04:35:33;;;;;;;13.25;3.72;;;8.20;91.60;;;;;;5009399;28;25068;-74
2022/02/24 04:37:59;;;;;;;8.65;3.65;;;8.20;91.70;;;;;;5008914;28;26219;-74
2022/02/24 04:40:25;;;;;;;14.88;3.92;;;8.20;91.60;;;;;;5008488;28;25068;-75
2022/02/24 04:42:50;;;;;;;15.95;3.05;;;8.20;91.50;;;;;;5009061;28;25074;-74
2022/02/24 04:45:16;;;;;;;15.25;3.47;;;8.20;91.90;;;;;;5007912;28;25071;-75
2022/02/24 04:47:41;;;;;;;18.30;3.85;;;8.20;91.50;;;;;;5008410;28;25070;-73
2022/02/24 04:50:08;;;;;;;9.35;2.85;;;8.20;91.50;;;;;;5009839;28;25056;-73
2022/02/24 04:52:35;;;;;;;10.95;3.15;;;8.20;91.30;;;;;;5012174;28;25090;-74
2022/02/24 04:55:02;;;;;;;13.32;3.97;;;8.20;91.40;;;;;;5007788;28;25057;-75
2022/02/24 04:57:28;;;;;;;14.40;3.83;;;8.20;91.40;;;;;;5027335;28;25072;-75
2022/02/24 04:59:55;;;;;;;15.13;3.75;;;8.20;91.30;;;;;;5014061;28;25130;-75
2022/02/24 05:02:21;;;;;;;15.05;3.55;;;8.20;91.30;;;;;;5007020;28;25083;-74
2022/02/24 05:04:47;;;;;;;16.70;4.35;;;8.20;91.30;;;;;;4990907;28;25164;-75
2022/02/24 05:07:12;;;;;;;18.30;4.13;;;8.20;91.20;;;;;;5006443;28;25097;-73
2022/02/24 05:09:39;;;;;;;13.85;3.67;;;8.20;91.30;;;;;;5007526;28;25110;-74
2022/02/24 05:12:05;;;;;;;13.52;3.53;;;8.20;91.40;;;;;;5006769;28;25052;-74
2022/02/24 05:14:31;;;;;;;16.15;4.07;;;8.20;91.50;;;;;;5005105;28;25151;-75
2022/02/24 05:16:57;;;;;;;16.42;3.70;;;8.20;91.50;;;;;;4997705;28;25105;-75
2022/02/24 05:19:23;;;;;;;15.50;3.42;;;8.10;91.60;;;;;;5008945;28;25091;-73
2022/02/24 05:21:48;;;;;;;16.48;3.83;;;8.20;91.70;;;;;;4987567;28;25101;-75
2022/02/24 05:24:14;;;;;;;16.95;3.85;;;8.20;91.70;;;;;;4985030;28;25167;-77
2022/02/24 05:26:39;;;;;;;16.25;3.70;;;8.20;91.70;;;;;;5003313;28;25070;-75
2022/02/24 05:29:05;;;;;;;17.65;3.78;;;8.10;91.90;;;;;;5008060;28;25156;-75
2022/02/24 05:31:30;;;;;;;15.18;3.63;;;8.20;91.80;;;;;;5008048;28;25072;-75
2022/02/24 05:33:56;;;;;;;20.70;3.60;;;8.20;91.90;;;;;;5000501;28;25060;-75
2022/02/24 05:36:21;;;;;;;14.70;3.08;;;8.20;91.90;;;;;;5004146;28;25061;-74
2022/02/24 05:38:47;;;;;;;12.60;3.15;;;8.20;92.00;;;;;;4990751;28;25074;-75
2022/02/24 05:41:13;;;;;;;11.60;3.15;;;8.20;92.10;;;;;;4992311;28;25141;-75
2022/02/24 05:43:38;;;;;;;11.10;3.08;;;8.20;92.20;;;;;;4990372;28;25065;-74
2022/02/24 05:46:04;;;;;;;14.68;3.30;;;8.10;92.20;;;;;;4999313;28;25050;-74
2022/02/24 05:48:29;;;;;;;11.07;2.95;;;8.10;92.30;;;;;;4999759;28;25163;-73
2022/02/24 05:50:55;;;;;;;16.77;4.18;;;8.10;92.40;;;;;;4999068;28;25081;-73
2022/02/24 05:53:20;;;;;;;21.05;3.88;;;8.20;92.50;;;;;;5003934;28;25082;-74
2022/02/24 05:55:46;;;;;;;17.95;3.60;;;8.10;92.40;;;;;;4998618;28;25081;-73
2022/02/24 05:58:11;;;;;;;15.00;3.83;;;8.10;92.60;;;;;;4999227;28;25145;-74
2022/02/24 06:00:37;;;;;;;12.52;3.20;;;8.10;92.50;;;;;;4995221;28;25093;-73
2022/02/24 06:03:04;;;;;;;14.77;4.15;;;8.10;92.60;;;;;;5003071;28;25086;-73
2022/02/24 06:05:29;;;;;;;14.20;3.78;;;8.10;92.60;;;;;;5007830;28;25085;-76
2022/02/24 06:07:55;;;;;;;13.77;3.60;;;8.10;92.70;;;;;;4995388;28;25066;-74
2022/02/24 06:10:20;;;;;;;15.18;3.42;;;8.10;92.70;;;;;;4998142;28;25088;-74
2022/02/24 06:12:46;;;;;;;17.67;3.90;;;8.10;92.70;;;;;;5006716;28;25134;-75
2022/02/24 06:15:13;;;;;;;13.90;3.10;;;8.10;92.70;;;;;;4991927;28;25085;-76
2022/02/24 06:17:38;;;;;;;17.83;3.30;;;8.10;92.90;;;;;;5004412;28;25141;-74
2022/02/24 06:20:05;;;;;;;10.98;2.90;;;8.10;92.80;;;;;;5006772;28;25068;-75
2022/02/24 06:22:31;;;;;;;14.68;3.90;;;8.00;93.10;;;;;;5009873;28;25076;-74
2022/02/24 06:24:57;;;;;;;19.13;5.03;;;8.00;92.80;;;;;;5017825;28;25079;-76
2022/02/24 06:27:23;;;;;;;14.63;4.32;;;8.00;92.80;;;;;;5020489;28;25087;-75
2022/02/24 06:29:48;;;;;;;16.45;3.92;;;8.00;92.90;;;;;;5020183;28;25063;-76
2022/02/24 06:32:14;;;;;;;12.23;3.03;;;8.00;93.00;;;;;;5022077;28;25125;-73
2022/02/24 06:34:40;;;;;;;23.00;3.78;;;8.00;92.80;;;;;;5009230;28;25068;-75
2022/02/24 06:37:07;;;;;;;14.63;3.55;;;8.10;92.90;;;;;;4994950;28;25073;-74
2022/02/24 06:39:33;;;;;;;13.23;3.53;;;8.00;92.80;;;;;;4998856;28;25082;-75
2022/02/24 06:41:59;;;;;;;11.02;2.92;;;8.00;92.90;;;;;;4989068;28;25092;-76
2022/02/24 06:44:25;;;;;;;20.17;4.03;;;8.10;92.90;;;;;;5008710;28;25139;-75
2022/02/24 06:46:50;;;;;;;17.80;3.15;;;8.00;92.80;;;;;;5007053;28;25155;-75
2022/02/24 06:49:16;;;;;;;14.15;2.90;;;8.10;92.80;;;;;;5016519;28;25089;-76
2022/02/24 06:51:41;;;;;;;13.73;3.35;;;8.10;93.00;;;;;;5008520;28;25100;-75
2022/02/24 06:54:07;;;;;;;14.27;3.03;;;8.10;92.90;;;;;;5009498;28;25055;-75
2022/02/24 06:56:33;;;;;;;16.00;3.35;;;8.10;92.90;;;;;;5012252;28;25077;-74
2022/02/24 06:58:58;;;;;;;14.52;3.38;;;8.10;92.80;;;;;;5013900;28;25083;-76
2022/02/24 07:01:24;;;;;;;14.60;3.30;;;8.10;92.60;;;;;;5013680;28;25075;-77
2022/02/24 07:03:49;;;;;;;7.85;2.85;;;8.10;92.60;;;;;;5013993;28;25150;-77
2022/02/24 07:06:15;;;;;;;10.93;2.92;;;8.10;92.40;;;;;;5013516;28;25067;-77
2022/02/24 07:08:41;;;;;;;9.75;3.42;;;8.10;92.40;;;;;;4996481;28;25092;-75
2022/02/24 07:11:06;;;;;;;12.43;2.67;;;8.10;92.30;;;;;;5012999;28;25064;-76
2022/02/24 07:13:32;;;;;;;6.35;2.10;;;8.20;92.30;;;;;;5013257;28;25059;-75
2022/02/24 07:15:57;;;;;;;19.63;4.20;;;8.20;92.40;;;;;;5013746;28;25080;-73
2022/02/24 07:18:23;;;;;;;12.30;2.60;;;8.20;92.40;;;;;;5012536;28;25144;-74
2022/02/24 07:20:48;;;;;;;12.45;2.90;;;8.20;92.30;;;;;;5012433;28;25075;-74
2022/02/24 07:23:14;;;;;;;14.15;3.53;;;8.10;92.50;;;;;;5012825;28;25140;-72
2022/02/24 07:25:40;;;;;;;17.55;3.05;;;8.10;92.50;;;;;;5012042;28;25068;-75
2022/02/24 07:28:07;;;;;;;11.35;3.13;;;8.10;92.20;;;;;;5013494;28;25162;-74
2022/02/24 07:30:37;;;;;;;14.32;2.78;;;8.20;92.00;;;;;;5012201;28;25079;-72
2022/02/24 07:33:03;;;;;;;16.73;3.85;;;8.20;92.10;;;;;;5012661;28;25060;-72
2022/02/24 07:35:29;;;;;;;8.77;2.65;;;8.20;92.10;;;;;;5012554;28;25047;-73
2022/02/24 07:37:55;;;;;;;13.30;3.15;;;8.20;92.30;;;;;;5013381;28;25062;-73
2022/02/24 07:40:20;;;;;;;9.70;2.88;;;8.20;92.40;;;;;;5018816;28;25076;-74
2022/02/24 07:42:47;;;;;;;9.93;2.72;;;8.20;92.60;;;;;;5022694;28;25094;-73
2022/02/24 07:45:13;;;;;;;14.75;3.55;;;8.10;93.20;;;;;;5015226;28;25091;-74
2022/02/24 07:47:39;;;;;;;12.35;3.03;;;8.10;93.50;;;;;;5032170;28;25080;-73
2022/02/24 07:50:06;;;;;;;19.08;3.92;;;8.10;93.30;;;;;;5016902;28;25102;-75
2022/02/24 07:52:32;;;;;;;13.77;3.55;;;8.20;93.30;;;;;;5018256;28;25113;-76
2022/02/24 07:54:58;;;;;;;14.52;3.22;;;8.20;92.90;;;;;;5036649;28;25070;-76
2022/02/24 07:57:23;;;;;;;9.38;3.00;;;8.20;92.60;;;;;;5034614;28;25059;-73
2022/02/24 07:59:49;;;;;;;10.57;2.65;;;8.20;92.60;;;;;;5034656;28;25073;-75
2022/02/24 08:02:14;;;;;;;8.90;3.00;;;8.20;92.50;;;;;;5035115;28;25061;-72
2022/02/24 08:04:40;;;;;;;14.18;3.30;;;8.20;92.80;;;;;;5035684;28;25066;-77
2022/02/24 08:07:05;;;;;;;14.32;2.97;;;8.20;92.50;;;;;;5018973;28;25055;-76
2022/02/24 08:09:31;;;;;;;12.82;3.55;;;8.20;92.50;;;;;;5034266;28;25093;-73
2022/02/24 08:14:41;;;;;;;15.52;2.88;;;8.20;92.50;;;;;;5016407;28;25072;-74
2022/02/24 08:17:07;;;;;;;16.80;2.80;;;8.30;92.40;;;;;;5016696;28;25075;-75
2022/02/24 08:19:33;;;;;;;10.27;2.72;;;8.30;92.60;;;;;;5014760;28;25095;-73
2022/02/24 08:21:59;;;;;;;16.17;3.15;;;8.40;92.30;;;;;;5016860;28;25054;-74
2022/02/24 08:24:25;;;;;;;9.43;3.13;;;8.40;92.20;;;;;;5014760;28;25113;-75
2022/02/24 08:26:52;;;;;;;14.15;3.80;;;8.40;92.30;;;;;;5019548;28;25068;-75
2022/02/24 08:29:18;;;;;;;19.52;3.33;;;8.40;92.40;;;;;;5015454;28;25050;-75
2022/02/24 08:31:43;;;;;;;11.43;3.58;;;8.40;92.60;;;;;;5016206;28;25079;-74
2022/02/24 08:34:09;;;;;;;12.75;3.40;;;8.40;92.50;;;;;;5013168;28;25138;-74
2022/02/24 08:36:35;;;;;;;13.52;4.00;;;8.40;92.60;;;;;;5015388;28;25072;-74
2022/02/24 08:39:01;;;;;;;14.45;3.67;;;8.50;92.60;;;;;;5028786;28;25099;-75
2022/02/24 08:41:27;;;;;;;9.60;2.83;;;8.50;92.50;;;;;;5025687;28;25051;-76
2022/02/24 08:43:52;;;;;;;11.85;3.58;;;8.40;92.40;;;;;;5025379;28;25132;-76
2022/02/24 08:46:18;;;;;;;14.48;5.07;;;8.40;92.60;;;;;;5026511;28;25071;-76
2022/02/24 08:48:43;;;;;;;12.43;2.80;;;8.30;92.60;;;;;;5022391;28;25070;-74
2022/02/24 08:51:10;;;;;;;18.50;3.63;;;8.40;92.70;;;;;;5025905;28;25122;-74
2022/02/24 08:53:36;;;;;;;13.52;3.35;;;8.40;92.70;;;;;;5018985;28;25070;-77
2022/02/24 08:56:01;;;;;;;12.48;3.72;;;8.30;92.90;;;;;;5012311;28;25099;-76
2022/02/24 08:58:27;;;;;;;18.73;4.50;;;8.30;92.80;;;;;;5011179;28;25105;-75
2022/02/24 09:00:52;;;;;;;25.30;6.80;;;8.40;92.80;;;;;;5010638;28;25159;-75
2022/02/24 09:03:18;;;;;;;14.88;3.92;;;8.40;92.90;;;;;;5010352;28;25160;-74
2022/02/24 09:05:45;;;;;;;22.40;4.00;;;8.50;93.10;;;;;;5010677;28;25069;-74
2022/02/24 09:08:12;;;;;;;12.77;3.75;;;8.50;93.00;;;;;;5009892;28;25101;-74
2022/02/24 09:10:38;;;;;;;15.45;3.25;;;8.50;92.90;;;;;;5010483;28;25064;-75
2022/02/24 09:13:04;;;;;;;13.95;3.88;;;8.60;92.90;;;;;;5010191;28;25066;-75
2022/02/24 09:15:35;;;;;;;21.35;3.88;;;8.70;92.60;;;;;;5011284;28;25080;-75
2022/02/24 09:18:01;;;;;;;19.08;4.25;;;8.70;92.50;;;;;;4993855;28;25078;-73
2022/02/24 09:20:29;;;;;;;14.43;4.20;;;8.80;92.40;;;;;;5011308;28;25080;-73
2022/02/24 09:22:55;;;;;;;16.52;4.25;;;8.80;92.50;;;;;;4991723;28;25049;-74
2022/02/24 09:25:21;;;;;;;14.90;4.05;;;8.90;92.20;;;;;;5009289;28;25070;-74
2022/02/24 09:27:46;;;;;;;17.88;4.55;;;9.00;92.40;;;;;;5010319;28;25078;-74
2022/02/24 09:30:12;;;;;;;18.77;4.10;;;9.00;92.20;;;;;;4992525;28;25077;-75
2022/02/24 09:32:39;;;;;;;17.88;4.25;;;9.00;92.30;;;;;;5009485;28;25146;-74
2022/02/24 09:35:06;;;;;;;22.42;4.57;;;9.00;92.40;;;;;;5009239;28;25078;-74
2022/02/24 09:37:34;;;;;;;12.73;3.83;;;9.10;92.50;;;;;;5010623;28;25068;-76
2022/02/24 09:40:03;;;;;;;13.13;4.00;;;9.20;92.30;;;;;;5010355;28;25131;-75
2022/02/24 09:42:29;;;;;;;16.80;4.00;;;9.40;92.10;;;;;;5010646;28;25117;-76
2022/02/24 09:44:54;;;;;;;11.75;4.13;;;9.40;91.60;;;;;;5011400;28;25128;-74
2022/02/24 09:47:21;;;;;;;21.35;4.13;;;9.30;91.70;;;;;;5012039;28;25138;-75
2022/02/24 09:49:48;;;;;;;15.27;4.22;;;9.20;91.90;;;;;;5011495;28;25073;-72
2022/02/24 09:52:14;;;;;;;18.48;4.95;;;9.40;92.30;;;;;;5011211;28;25072;-72
2022/02/24 09:54:40;;;;;;;16.23;5.28;;;9.50;91.80;;;;;;5011439;28;25071;-78
2022/02/24 09:57:05;;;;;;;20.25;4.13;;;9.60;91.50;;;;;;5012026;28;25063;-74
2022/02/24 09:59:31;;;;;;;10.55;3.70;;;9.50;91.30;;;;;;5010621;28;25066;-74
2022/02/24 10:01:58;;;;;;;13.93;3.55;;;9.60;91.50;;;;;;5010506;28;25107;-75
2022/02/24 10:04:25;;;;;;;17.67;4.30;;;9.60;91.30;;;;;;5014239;28;25108;-74
2022/02/24 10:06:51;;;;;;;17.48;3.53;;;9.70;91.30;;;;;;4994477;28;25066;-73
2022/02/24 10:09:31;;;;;;;22.40;4.60;;;10.00;90.70;;;;;;5010582;28;25053;-75
2022/02/24 10:12:09;;;;;;;15.05;4.40;;;10.10;90.30;;;;;;4993819;28;25088;-75
2022/02/24 10:14:35;;;;;;;18.33;3.72;;;10.40;89.40;;;;;;5010094;28;25058;-73
2022/02/24 10:17:04;;;;;;;17.05;3.83;;;10.40;89.50;;;;;;5009287;28;25081;-75
2022/02/24 10:19:37;;;;;;;14.30;3.88;;;10.50;89.50;;;;;;5009425;28;25106;-74
2022/02/24 10:22:19;;;;;;;15.73;3.70;;;10.60;88.90;;;;;;5010970;28;25063;-76
2022/02/24 10:24:54;;;;;;;13.13;3.40;;;10.50;89.20;;;;;;5008764;28;25060;-76
2022/02/24 10:27:24;;;;;;;16.90;4.05;;;10.50;89.30;;;;;;5010482;28;25078;-74
2022/02/24 10:30:09;;;;;;;13.90;4.55;;;10.70;89.00;;;;;;5011218;28;25057;-74
2022/02/24 10:32:39;;;;;;;20.23;4.60;;;10.70;87.80;;;;;;5019818;28;25106;-73
2022/02/24 10:35:25;;;;;;;14.35;3.40;;;10.60;88.30;;;;;;5014976;28;25101;-74
2022/02/24 10:38:04;;;;;;;18.95;3.97;;;10.80;87.60;;;;;;5014178;28;25070;-77
2022/02/24 10:40:36;;;;;;;21.45;4.53;;;10.90;87.30;;;;;;5013589;28;25118;-76
2022/02/24 10:43:12;;;;;;;;;;;10.90;86.20;;;;;;5013649;28;25072;-75
2022/02/24 10:45:39;;;;;;;14.90;3.55;;;10.70;86.00;;;;;;5015827;28;24065;-78
2022/02/24 10:48:06;;;;;;;11.90;3.28;;;10.80;86.20;;;;;;5013658;28;25059;-75
2022/02/24 10:50:51;;;;;;;17.05;4.30;;;11.00;87.40;;;;;;5012533;28;25091;-74
2022/02/24 10:53:24;;;;;;;11.43;3.58;;;11.10;86.00;;;;;;5013490;28;25146;-77
2022/02/24 10:55:56;;;;;;;13.90;3.58;;;10.90;85.70;;;;;;5012967;28;25049;-75
2022/02/24 10:58:23;;;;;;;16.00;3.73;;;10.80;87.10;;;;;;5012735;28;25137;-72
2022/02/24 11:01:06;;;;;;;15.23;3.97;;;10.70;86.80;;;;;;5013571;28;25063;-75
2022/02/24 11:03:32;;;;;;;15.02;3.35;;;10.80;88.20;;;;;;4995857;28;25052;-77
2022/02/24 11:06:04;;;;;;;14.55;3.42;;;10.80;87.30;;;;;;5012943;28;25090;-73
2022/02/24 11:08:31;;;;;;;14.57;3.10;;;10.70;87.20;;;;;;5013168;28;25154;-75
2022/02/24 11:10:59;;;;;;;10.27;3.30;;;10.70;86.00;;;;;;5013875;28;25077;-73
2022/02/24 11:13:26;;;;;;;11.45;3.53;;;10.90;85.50;;;;;;5013007;28;25111;-76
2022/02/24 11:15:52;;;;;;;20.48;4.68;;;11.00;85.70;;;;;;5012889;28;25081;-72
2022/02/24 11:18:17;;;;;;;14.85;3.13;;;11.00;85.30;;;;;;5012825;28;25072;-74
2022/02/24 11:20:43;;;;;;;10.35;3.50;;;11.10;84.80;;;;;;5012136;28;25066;-76
2022/02/24 11:23:11;;;;;;;12.23;2.83;;;11.00;84.30;;;;;;5012495;28;25054;-76
2022/02/24 11:25:52;;;;;;;12.60;3.00;;;11.00;85.70;;;;;;5011769;28;25067;-74
2022/02/24 11:28:19;;;;;;;9.10;2.55;;;11.10;85.90;;;;;;5012413;28;25048;-75
2022/02/24 11:30:50;;;;;;;9.02;2.55;;;11.20;84.80;;;;;;4995330;28;25069;-76
2022/02/24 11:33:16;;;;;;;17.80;4.28;;;11.30;84.20;;;;;;5012793;28;25061;-75
2022/02/24 11:35:42;;;;;;;12.32;3.13;;;11.20;84.80;;;;;;5012669;28;25052;-75
2022/02/24 11:38:12;;;;;;;16.02;3.38;;;10.90;85.30;;;;;;5014431;28;25085;-73
2022/02/24 11:40:39;;;;;;;13.20;2.80;;;10.70;86.30;;;;;;5015213;28;25121;-73
2022/02/24 11:43:14;;;;;;;9.45;2.88;;;10.60;86.80;;;;;;5011673;28;25104;-76
2022/02/24 11:45:48;;;;;;;16.38;3.08;;;10.60;87.70;;;;;;5020005;28;25094;-76
2022/02/24 11:48:19;;;;;;;10.10;2.63;;;10.60;87.50;;;;;;5021159;28;25061;-74
2022/02/24 11:50:55;;;;;;;11.27;3.33;;;10.50;87.30;;;;;;5014153;28;25055;-77
2022/02/24 11:53:27;;;;;;;13.07;3.00;;;10.40;88.00;;;;;;5012012;28;25088;-77
2022/02/24 11:55:58;;;;;;;8.32;2.53;;;10.40;87.60;;;;;;5011609;28;25145;-74
2022/02/24 11:58:35;;;;;;;9.75;2.95;;;10.40;87.90;;;;;;5011190;28;25096;-75
2022/02/24 12:01:24;;;;;;;11.98;2.97;;;10.40;88.50;;;;;;5011711;28;25056;-75
2022/02/24 12:03:52;;;;;;;6.65;2.53;;;10.30;90.40;;;;;;5010887;28;25155;-75
2022/02/24 12:06:19;;;;;;;11.52;2.53;;;10.20;91.10;;;;;;5011209;28;25072;-74
2022/02/24 12:09:16;;;;;;;14.35;3.28;;;10.10;92.00;;;;;;5011770;28;25061;-75
2022/02/24 12:11:47;;;;;;;12.88;3.28;;;10.10;92.70;;;;;;5011871;28;25061;-73
2022/02/24 12:14:24;;;;;;;8.52;2.28;;;10.00;93.50;;;;;;5011833;28;25077;-74
2022/02/24 12:17:06;;;;;;;7.40;2.17;;;9.90;93.00;;;;;;4994000;28;25048;-77
2022/02/24 12:19:42;;;;;;;7.97;2.63;;;9.80;93.10;;;;;;5011795;28;25060;-75
2022/02/24 12:22:19;;;;;;;17.40;3.03;;;9.80;94.20;;;;;;5012962;28;24986;-74
2022/02/24 12:24:51;;;;;;;7.93;2.50;;;9.70;94.40;;;;;;5019676;28;25070;-75
2022/02/24 12:27:31;;;;;;;11.77;2.47;;;9.60;94.90;;;;;;5015387;28;25064;-76
2022/02/24 12:30:02;;;;;;;11.32;3.17;;;9.60;96.20;;;;;;5013154;28;25143;-73
2022/02/24 12:32:41;;;;;;;9.88;2.72;;;9.50;97.70;;;;;;4993426;28;25150;-74
2022/02/24 12:35:09;;;;;;;9.23;2.60;;;9.40;98.70;;;;;;4993708;28;25088;-74
2022/02/24 12:37:35;;;;;;;13.88;3.88;;;9.30;99.40;;;;;;5011650;28;25094;-77
2022/02/24 12:40:03;;;;;;;14.63;2.90;;;9.20;99.90;;;;;;5011078;28;25083;-74
2022/02/24 12:42:30;;;;;;;11.68;3.53;;;9.10;99.90;;;;;;5011809;28;25095;-77
2022/02/24 12:44:57;;;;;;;18.38;4.00;;;8.90;99.90;;;;;;5011816;28;25061;-72
2022/02/24 12:47:23;;;;;;;22.45;4.72;;;8.80;99.90;;;;;;5011807;28;25064;-73